KEOK

Keokuk Municipal Airport

Keokuk, Iowa, USA
METAR KEOK 151855Z AUTO 23015KT 10SM OVC060 04/M06 A2998 RMK AO2
Observed Flight Rules
Dec-15 @ 18:55 UTC (34 minutes ago) Visual Flight Rules
Wind Visibility Clouds
230° at 15 knots 10 miles
  • Overcast at 6,000' AGL
Temperatures Readings
Current 4°C / 39°F
Dewpoint -6°C / 21°F
Humidity 48%
Altimeter 29.98" Hg
Pressure 1015 hPa
Elevation 205
METAR KEOK 151855Z AUTO 23015KT 10SM OVC060 04/M06 A2998 RMK AO2
Observed Flight Rules
Dec-15 @ 18:55 UTC
(34 minutes ago)
VFR
Wind Visibility
230° at 15 knots 10 miles
Clouds
  • Overcast at 6,000' AGL
Temperature Dewpoint
4°C / 39°F -6°C / 21°F
Humidity Altimeter Pressure
48% 29.98" Hg 1015 hPa